Terminal Aerodrome Forecast
Issued by NWS Wilmington, OH

Home | Current Version | Previous Version | Text Only | Print | Product List | Glossary On
Versions: 1 2 3 4 5 6 7 8 9 10 11 12 13 14 15 16 17
000
FTUS41 KILN 191131
TAFDAY
TAF
KDAY 191131Z 1912/2012 31015G23KT P6SM OVC013
      TEMPO 1912/1913 5SM -SHSN OVC009
     FM191500 35015G25KT P6SM BKN025
     FM191800 33014G24KT P6SM BKN035
     FM192000 32013G20KT P6SM SCT250
     FM200000 33008KT P6SM SKC=

USA.gov is the U.S. government's official web portal to all federal, state and local government web resources and services.